Time;durP1;ratioP1;P1;durP2;ratioP2;P2;SDS_P1;SDS_P2;PMS_P1;PMS_P2;Temp;Humidity;BMP_temperature;BMP_pressure;BME280_temperature;BME280_humidity;BME280_pressure;Samples;Min_cycle;Max_cycle;Signal;HPM_P1;HPM_P2
2022/07/11 00:01:29;;;;;;;2.47;1.05;;;;;;;38.11;18.39;100476.84;5034046;28;20029;-76
2022/07/11 00:03:54;;;;;;;2.15;1.20;;;;;;;37.94;18.06;100472.28;5034302;28;20037;-76
2022/07/11 00:06:19;;;;;;;1.33;1.02;;;;;;;37.99;18.10;100485.22;5033842;28;20134;-75
2022/07/11 00:08:45;;;;;;;5.88;1.63;;;;;;;37.99;17.68;100477.03;5033583;28;20383;-77
2022/07/11 00:11:10;;;;;;;3.33;1.13;;;;;;;37.85;17.89;100466.63;5033470;28;20078;-77
2022/07/11 00:13:35;;;;;;;2.65;1.10;;;;;;;37.96;17.57;100474.59;5048937;28;20031;-76
2022/07/11 00:16:01;;;;;;;3.30;1.33;;;;;;;37.92;17.65;100468.47;5048896;28;20029;-75
2022/07/11 00:18:26;;;;;;;3.95;1.20;;;;;;;37.81;17.88;100464.22;5032660;28;20079;-77
2022/07/11 00:20:52;;;;;;;1.55;1.00;;;;;;;37.58;17.93;100458.66;5033877;28;20450;-76
2022/07/11 00:23:18;;;;;;;2.28;1.10;;;;;;;37.67;17.97;100460.56;5032355;28;20104;-78
2022/07/11 00:25:43;;;;;;;6.07;1.30;;;;;;;37.59;17.75;100466.16;5033693;28;20095;-76
2022/07/11 00:28:09;;;;;;;5.35;1.35;;;;;;;37.67;17.47;100453.84;5033253;28;20379;-76
2022/07/11 00:30:34;;;;;;;5.43;1.27;;;;;;;37.65;17.70;100448.56;5033709;28;20057;-77
2022/07/11 00:32:59;;;;;;;3.40;0.90;;;;;;;37.52;17.16;100453.16;5033539;28;20052;-76
2022/07/11 00:35:25;;;;;;;5.00;1.80;;;;;;;37.35;17.52;100453.75;5033416;28;20032;-76
2022/07/11 00:37:50;;;;;;;3.22;1.00;;;;;;;37.32;17.33;100452.13;5033206;28;20084;-77
2022/07/11 00:40:16;;;;;;;2.78;1.30;;;;;;;37.37;17.38;100456.09;5033394;28;20087;-76
2022/07/11 00:42:41;;;;;;;4.00;1.30;;;;;;;37.29;16.71;100450.50;5032042;28;20029;-76
2022/07/11 00:45:07;;;;;;;2.55;1.15;;;;;;;37.18;17.29;100452.22;5036092;28;20378;-76
2022/07/11 00:47:32;;;;;;;5.60;1.58;;;;;;;37.31;17.00;100452.81;5037952;28;20029;-76
2022/07/11 00:49:58;;;;;;;4.55;1.13;;;;;;;36.96;16.82;100447.28;5037486;28;20478;-76
2022/07/11 00:52:23;;;;;;;1.77;0.93;;;;;;;36.81;17.07;100451.72;5037344;28;20086;-76
2022/07/11 00:54:49;;;;;;;4.65;1.30;;;;;;;36.64;17.14;100441.22;5034307;28;20064;-76
2022/07/11 00:57:15;;;;;;;4.22;1.33;;;;;;;36.79;17.12;100442.72;5034986;28;20022;-76
2022/07/11 00:59:40;;;;;;;3.40;1.17;;;;;;;36.93;16.91;100446.44;5033728;28;20384;-76
2022/07/11 01:02:06;;;;;;;5.13;1.92;;;;;;;36.72;17.04;100444.59;5034262;28;20025;-77
2022/07/11 01:04:31;;;;;;;8.32;1.50;;;;;;;36.75;17.04;100445.50;5050464;28;20040;-77
2022/07/11 01:06:57;;;;;;;5.38;1.33;;;;;;;36.70;17.03;100450.47;5035316;28;20029;-77
2022/07/11 01:09:22;;;;;;;2.30;0.98;;;;;;;36.65;17.05;100451.69;5035607;28;20109;-75
2022/07/11 01:11:48;;;;;;;4.93;1.80;;;;;;;36.55;17.07;100439.25;5036839;28;20080;-76
2022/07/11 01:14:13;;;;;;;2.10;1.20;;;;;;;36.44;17.11;100446.06;5036554;28;20112;-77
2022/07/11 01:16:39;;;;;;;4.85;2.10;;;;;;;36.38;17.05;100448.69;5033316;28;20104;-76
2022/07/11 01:19:04;;;;;;;3.00;1.52;;;;;;;36.33;17.32;100443.97;5033478;28;20025;-77
2022/07/11 01:21:30;;;;;;;2.60;1.90;;;;;;;36.17;17.45;100443.88;5033433;28;20029;-74
2022/07/11 01:23:57;;;;;;;5.10;1.38;;;;;;;36.15;17.43;100448.94;5033472;28;20033;-76
2022/07/11 01:26:24;;;;;;;1.50;1.17;;;;;;;36.06;17.72;100450.66;5033706;28;20131;-77
2022/07/11 01:28:50;;;;;;;4.65;1.52;;;;;;;35.92;17.76;100444.69;5035046;28;20033;-79
2022/07/11 01:31:16;;;;;;;7.45;1.90;;;;;;;35.93;17.78;100452.16;5035094;28;20022;-78
2022/07/11 01:33:41;;;;;;;2.30;1.35;;;;;;;35.91;17.76;100448.34;5037041;28;20441;-77
2022/07/11 01:36:07;;;;;;;4.88;1.80;;;;;;;35.70;17.88;100449.41;5036772;28;20126;-75
2022/07/11 01:38:33;;;;;;;7.15;1.67;;;;;;;35.70;17.94;100446.44;5036212;28;20511;-76
2022/07/11 01:40:58;;;;;;;2.53;1.40;;;;;;;35.64;18.32;100449.00;5035190;28;20029;-75
2022/07/11 01:43:24;;;;;;;3.95;1.40;;;;;;;35.50;18.32;100449.00;5035027;28;20021;-76
2022/07/11 01:45:54;;;;;;;4.05;1.88;;;;;;;35.39;18.02;100446.09;5036471;28;20030;-76
2022/07/11 01:48:19;;;;;;;7.65;1.75;;;;;;;35.25;18.47;100446.03;5051556;28;20112;-76
2022/07/11 01:50:45;;;;;;;4.20;1.85;;;;;;;35.24;18.20;100452.63;5051569;28;20125;-76
2022/07/11 01:53:11;;;;;;;2.63;1.40;;;;;;;35.07;18.72;100448.69;5036110;28;20033;-76
2022/07/11 01:55:36;;;;;;;3.50;1.30;;;;;;;34.72;18.71;100447.28;5035789;28;20032;-76
2022/07/11 01:58:02;;;;;;;2.20;1.33;;;;;;;34.63;19.59;100452.69;5035949;28;20021;-76
2022/07/11 02:00:27;;;;;;;5.28;1.52;;;;;;;34.52;19.23;100464.53;5036208;28;20060;-76
2022/07/11 02:02:53;;;;;;;5.45;1.50;;;;;;;34.43;19.57;100460.31;5036205;28;20116;-76
2022/07/11 02:05:18;;;;;;;4.70;1.45;;;;;;;34.39;19.28;100456.34;5036053;28;20021;-76
2022/07/11 02:10:29;;;;;;;2.58;1.35;;;;;;;34.47;19.68;100456.84;5035773;28;20092;-78
2022/07/11 02:12:57;;;;;;;2.78;1.27;;;;;;;34.31;19.11;100453.63;5034567;28;20025;-76
2022/07/11 02:15:23;;;;;;;5.05;1.50;;;;;;;34.42;19.50;100460.97;5034366;28;20025;-75
2022/07/11 02:17:48;;;;;;;6.20;1.60;;;;;;;34.37;19.07;100459.16;5035915;28;20036;-76
2022/07/11 02:20:14;;;;;;;4.25;1.77;;;;;;;34.29;19.65;100461.63;5035749;28;20467;-76
2022/07/11 02:22:39;;;;;;;3.47;1.58;;;;;;;34.32;19.10;100457.38;5035596;28;20438;-76
2022/07/11 02:25:05;;;;;;;3.47;1.35;;;;;;;34.22;19.71;100467.16;5035527;28;20045;-77
2022/07/11 02:27:31;;;;;;;3.78;1.75;;;;;;;34.22;19.11;100470.13;5034221;28;20034;-76
2022/07/11 02:29:56;;;;;;;4.95;1.58;;;;;;;34.04;19.10;100471.91;5035568;28;20025;-75
2022/07/11 02:32:21;;;;;;;3.65;1.50;;;;;;;34.15;19.77;100473.28;5035709;28;20108;-76
2022/07/11 02:34:47;;;;;;;4.30;1.52;;;;;;;34.17;19.26;100470.47;5035453;28;20033;-76
2022/07/11 02:37:12;;;;;;;2.30;1.30;;;;;;;34.14;19.28;100478.44;5035148;28;20052;-76
2022/07/11 02:39:37;;;;;;;5.75;1.40;;;;;;;33.93;19.24;100478.59;5033916;28;20095;-77
2022/07/11 02:42:03;;;;;;;2.67;1.48;;;;;;;34.02;19.32;100476.91;5035490;28;20525;-76
2022/07/11 02:44:28;;;;;;;2.42;1.23;;;;;;;33.68;20.14;100478.41;5035154;28;20025;-76
2022/07/11 02:46:54;;;;;;;2.50;1.42;;;;;;;33.67;19.53;100485.69;5035330;28;20048;-76
2022/07/11 02:49:19;;;;;;;5.15;1.40;;;;;;;33.45;20.24;100484.25;5050467;28;20070;-76
2022/07/11 02:51:45;;;;;;;4.53;1.48;;;;;;;33.65;19.86;100488.53;5035100;28;20386;-76
2022/07/11 02:54:10;;;;;;;4.50;1.73;;;;;;;33.36;20.19;100486.66;5034948;28;20020;-75
2022/07/11 02:56:35;;;;;;;5.85;1.80;;;;;;;33.56;20.00;100480.53;5050283;28;20126;-76
2022/07/11 02:59:01;;;;;;;5.32;1.73;;;;;;;33.63;19.35;100485.44;5035194;28;20036;-76
2022/07/11 03:01:27;;;;;;;3.63;1.40;;;;;;;33.82;19.50;100485.25;5035240;28;20183;-76
2022/07/11 03:03:52;;;;;;;1.50;1.10;;;;;;;33.91;19.74;100483.56;5033580;28;20029;-77
2022/07/11 03:06:17;;;;;;;7.70;1.40;;;;;;;34.09;19.26;100488.47;5034137;28;20135;-76
2022/07/11 03:08:43;;;;;;;3.45;1.45;;;;;;;34.30;18.96;100484.63;5034625;28;20028;-76
2022/07/11 03:11:08;;;;;;;3.28;1.27;;;;;;;34.15;19.69;100477.03;5034671;28;20025;-76
2022/07/11 03:13:35;;;;;;;3.03;1.42;;;;;;;34.32;19.31;100475.13;5034910;28;20025;-76
2022/07/11 03:16:01;;;;;;;5.50;1.63;;;;;;;34.38;18.86;100467.41;5033769;28;20045;-76
2022/07/11 03:18:27;;;;;;;5.63;1.60;;;;;;;34.50;18.76;100479.97;5034713;28;20434;-76
2022/07/11 03:20:53;;;;;;;3.03;1.00;;;;;;;34.57;19.21;100470.06;5035121;28;20141;-76
2022/07/11 03:23:18;;;;;;;4.18;1.40;;;;;;;34.67;19.07;100479.59;5034278;28;20104;-76
2022/07/11 03:25:44;;;;;;;4.78;1.67;;;;;;;34.74;18.91;100477.75;5049727;28;20028;-76
2022/07/11 03:28:09;;;;;;;2.80;1.42;;;;;;;34.93;18.61;100477.44;5034426;28;20021;-77
2022/07/11 03:30:35;;;;;;;5.10;1.70;;;;;;;35.13;18.55;100474.16;5034496;28;20029;-76
2022/07/11 03:33:00;;;;;;;5.50;1.65;;;;;;;35.08;18.06;100470.16;5034410;28;20454;-76
2022/07/11 03:35:40;;;;;;;4.72;1.20;;;;;;;35.20;18.42;100476.84;5034292;28;20029;-76
2022/07/11 03:38:08;;;;;;;5.47;2.17;;;;;;;35.14;18.59;100466.81;5049031;28;20483;-76
2022/07/11 03:40:33;;;;;;;1.48;1.33;;;;;;;35.26;18.38;100471.28;5033179;28;20052;-76
2022/07/11 03:43:00;;;;;;;1.63;1.25;;;;;;;35.47;18.15;100465.09;5032905;28;20419;-76
2022/07/11 03:45:27;;;;;;;2.35;1.55;;;;;;;35.69;18.02;100473.75;5034115;28;20060;-76
2022/07/11 03:47:53;;;;;;;4.07;1.20;;;;;;;35.59;18.05;100470.97;5032917;28;20478;-76
2022/07/11 03:50:20;;;;;;;8.90;2.63;;;;;;;35.42;18.02;100472.25;5034208;28;20040;-76
2022/07/11 03:52:47;;;;;;;5.53;2.33;;;;;;;35.51;17.91;100474.25;5049550;28;20029;-77
2022/07/11 03:55:13;;;;;;;10.23;2.00;;;;;;;35.30;18.22;100470.75;5034250;28;20384;-76
2022/07/11 03:57:40;;;;;;;3.45;1.33;;;;;;;35.15;18.21;100474.28;5034509;28;20498;-76
2022/07/11 04:00:10;;;;;;;4.20;2.22;;;;;;;35.04;18.56;100482.56;5033086;28;20035;-77
2022/07/11 04:02:43;;;;;;;2.70;1.30;;;;;;;35.26;18.60;100482.38;5032639;28;20028;-77
2022/07/11 04:05:10;;;;;;;5.28;1.63;;;;;;;35.39;18.34;100476.50;5032496;28;20025;-76
2022/07/11 04:07:37;;;;;;;2.35;1.02;;;;;;;35.41;17.83;100478.81;5033674;28;20022;-76
2022/07/11 04:10:03;;;;;;;3.88;1.15;;;;;;;35.41;18.27;100484.75;5033889;28;20040;-77
2022/07/11 04:12:30;;;;;;;3.90;1.70;;;;;;;35.34;18.20;100492.50;5032596;28;20111;-77
2022/07/11 04:14:57;;;;;;;6.72;1.80;;;;;;;35.52;18.23;100487.63;5032709;28;20040;-76
2022/07/11 04:17:26;;;;;;;5.47;1.63;;;;;;;35.78;18.28;100493.56;5033111;28;20476;-77
2022/07/11 04:19:53;;;;;;;5.15;1.55;;;;;;;35.87;17.58;100487.41;5031899;28;20029;-75
2022/07/11 04:22:19;;;;;;;8.07;2.17;;;;;;;36.18;17.37;100486.19;5049220;28;20045;-77
2022/07/11 04:24:52;;;;;;;6.22;1.90;;;;;;;36.10;17.84;100479.78;5048626;28;20521;-76
2022/07/11 04:27:18;;;;;;;3.22;1.10;;;;;;;36.12;17.42;100488.78;5033432;28;20048;-76
2022/07/11 04:29:48;;;;;;;3.13;1.60;;;;;;;35.96;17.90;100484.94;5033732;28;20398;-75
2022/07/11 04:32:13;;;;;;;4.18;1.45;;;;;;;36.07;17.73;100481.84;5033422;28;20017;-75
2022/07/11 04:34:39;;;;;;;4.47;1.50;;;;;;;36.32;17.49;100483.97;5033535;28;20044;-75
2022/07/11 04:37:04;;;;;;;7.32;2.00;;;;;;;36.49;17.56;100485.63;5033385;28;20021;-75
2022/07/11 04:39:32;;;;;;;2.92;1.60;;;;;;;36.22;17.34;100492.34;5033070;28;20051;-75
2022/07/11 04:41:58;;;;;;;4.07;1.27;;;;;;;36.43;17.31;100494.22;5032709;28;20057;-77
2022/07/11 04:44:26;;;;;;;2.92;1.17;;;;;;;36.64;17.12;100491.72;5048310;28;20025;-76
2022/07/11 04:46:52;;;;;;;2.15;1.30;;;;;;;36.67;17.22;100501.47;5033109;28;20101;-77
2022/07/11 04:49:19;;;;;;;5.32;1.40;;;;;;;36.47;17.28;100504.09;5048591;28;20071;-77
2022/07/11 04:51:45;;;;;;;3.03;1.65;;;;;;;36.27;17.59;100503.00;5048859;28;20021;-78
2022/07/11 04:54:11;;;;;;;5.93;2.08;;;;;;;36.61;16.99;100507.13;5033334;28;20048;-77
2022/07/11 04:56:38;;;;;;;5.13;2.25;;;;;;;36.77;16.91;100510.94;5033636;28;20048;-77
2022/07/11 04:59:04;;;;;;;5.50;1.55;;;;;;;36.69;17.07;100511.28;5033486;28;20025;-78
2022/07/11 05:01:30;;;;;;;4.55;1.50;;;;;;;36.43;17.45;100512.03;5048817;28;20382;-77
2022/07/11 05:03:56;;;;;;;3.40;1.80;;;;;;;36.34;17.28;100516.75;5033190;28;20021;-76
2022/07/11 05:06:22;;;;;;;5.93;2.38;;;;;;;36.58;17.09;100515.09;5048271;28;20528;-76
2022/07/11 05:08:47;;;;;;;5.72;2.30;;;;;;;36.70;17.10;100512.06;5031217;28;20247;-77
2022/07/11 05:11:13;;;;;;;3.78;1.60;;;;;;;37.01;16.93;100512.19;5032351;28;20097;-75
2022/07/11 05:13:39;;;;;;;3.38;1.33;;;;;;;36.58;17.21;100505.44;5031484;28;20136;-77
2022/07/11 05:16:06;;;;;;;1.58;1.10;;;;;;;36.44;17.53;100513.56;5031857;28;20451;-78
2022/07/11 05:18:31;;;;;;;8.35;1.70;;;;;;;36.88;17.13;100512.25;5033291;28;20105;-77
2022/07/11 05:20:57;;;;;;;4.68;1.35;;;;;;;37.47;16.78;100513.06;5033036;28;20097;-76
2022/07/11 05:23:24;;;;;;;2.25;1.23;;;;;;;37.64;16.51;100508.75;5032880;28;20041;-78
2022/07/11 05:25:49;;;;;;;6.20;1.50;;;;;;;38.26;16.16;100514.00;5037329;28;20083;-77
2022/07/11 05:28:17;;;;;;;2.80;1.92;;;;;;;38.74;16.12;100509.53;5032298;28;20455;-76
2022/07/11 05:30:44;;;;;;;4.60;1.88;;;;;;;39.14;15.31;100511.34;5036036;28;20443;-78
2022/07/11 05:33:09;;;;;;;3.83;1.50;;;;;;;39.75;14.76;100501.97;5036549;28;20078;-78
2022/07/11 05:35:36;;;;;;;2.22;1.33;;;;;;;40.07;14.96;100515.22;5036606;28;20104;-76
2022/07/11 05:38:01;;;;;;;6.45;2.70;;;;;;;40.75;14.64;100497.69;5035238;28;20060;-77
2022/07/11 05:40:29;;;;;;;3.00;1.30;;;;;;;41.17;13.92;100504.41;5036544;28;20033;-77
2022/07/11 05:42:54;;;;;;;4.03;1.70;;;;;;;40.73;14.16;100492.38;5036274;28;20078;-76
2022/07/11 05:45:20;;;;;;;2.53;1.20;;;;;;;39.62;14.52;100505.94;5032572;28;20104;-75
2022/07/11 05:47:45;;;;;;;6.13;2.70;;;;;;;39.58;14.75;100511.69;5032832;28;20021;-75
2022/07/11 05:50:10;;;;;;;3.28;1.02;;;;;;;40.04;14.83;100504.66;5048897;28;20384;-77
2022/07/11 05:52:36;;;;;;;3.17;1.15;;;;;;;40.19;14.77;100502.25;5033542;28;20032;-74
2022/07/11 05:55:01;;;;;;;7.03;1.88;;;;;;;40.18;14.48;100494.72;5034085;28;20530;-76
2022/07/11 05:57:27;;;;;;;3.72;1.30;;;;;;;39.97;15.16;100508.09;5033951;28;20572;-75
2022/07/11 05:59:53;;;;;;;2.88;1.25;;;;;;;41.75;13.95;100496.66;5034841;28;20421;-76
2022/07/11 06:02:21;;;;;;;2.83;0.90;;;;;;;45.60;11.27;100479.06;5035878;28;20116;-77
2022/07/11 06:04:46;;;;;;;4.65;1.08;;;;;;;48.39;8.62;100467.63;5036145;28;20048;-76
2022/07/11 06:08:40;;;;;;;5.60;1.35;;;;;;;51.60;8.37;100450.03;5035951;28;20123;-77
2022/07/11 06:09:57;;;;;;;4.88;1.33;;;;;;;54.74;6.38;100429.53;5035646;28;20378;-77
2022/07/11 06:12:22;;;;;;;3.22;0.60;;;;;;;57.57;5.94;100430.25;5036020;28;20031;-75
2022/07/11 06:14:48;;;;;;;4.28;0.93;;;;;;;59.47;4.75;100415.63;5035826;28;20079;-75
2022/07/11 06:17:13;;;;;;;5.15;2.92;;;;;;;61.10;3.82;100406.22;5035673;28;20021;-75
2022/07/11 06:19:38;;;;;;;9.05;1.60;;;;;;;62.61;2.90;100393.25;5035568;28;20055;-75
2022/07/11 06:22:04;;;;;;;1.45;0.70;;;;;;;63.38;2.85;100394.72;5035553;28;20024;-75
2022/07/11 06:24:29;;;;;;;2.75;0.70;;;;;;;63.17;2.05;100385.97;5035719;28;20061;-74
2022/07/11 06:26:58;;;;;;;3.47;0.90;;;;;;;64.05;2.38;100394.28;5035527;28;20025;-76
2022/07/11 06:29:24;;;;;;;2.53;0.80;;;;;;;61.09;2.72;100385.50;5035139;28;20072;-75
2022/07/11 06:31:49;;;;;;;4.85;1.38;;;;;;;58.50;4.01;100398.28;5035418;28;20030;-75
2022/07/11 06:34:14;;;;;;;3.05;1.60;;;;;;;55.85;4.75;100402.16;5035377;28;20469;-75
2022/07/11 06:36:40;;;;;;;4.38;1.55;;;;;;;54.20;6.22;100404.81;5035369;28;20048;-75
2022/07/11 06:39:05;;;;;;;4.90;1.63;;;;;;;53.04;6.09;100406.25;5034923;28;20045;-75
2022/07/11 06:41:31;;;;;;;2.03;0.63;;;;;;;52.55;6.41;100417.72;5034083;28;20049;-75
2022/07/11 06:43:56;;;;;;;1.15;0.93;;;;;;;50.79;7.21;100417.31;5035481;28;20021;-75
2022/07/11 06:46:21;;;;;;;4.03;1.02;;;;;;;50.39;8.05;100429.66;5035414;28;20332;-76
2022/07/11 06:48:47;;;;;;;7.18;1.50;;;;;;;50.21;7.63;100432.78;5034844;28;20030;-76
2022/07/11 06:51:12;;;;;;;3.65;0.90;;;;;;;49.65;7.92;100438.25;5034970;28;20023;-76
2022/07/11 06:53:37;;;;;;;4.88;1.08;;;;;;;48.14;9.16;100450.09;5034933;28;20109;-77
2022/07/11 06:56:03;;;;;;;4.47;1.80;;;;;;;47.83;9.35;100449.16;5035217;28;20405;-76
2022/07/11 06:58:31;;;;;;;7.07;1.05;;;;;;;45.97;10.51;100466.09;5034865;28;20061;-76
2022/07/11 07:00:58;;;;;;;7.07;0.70;;;;;;;45.66;10.30;100467.13;5035469;28;20091;-77
2022/07/11 07:03:25;;;;;;;1.20;0.80;;;;;;;45.91;10.61;100463.78;5034719;28;20083;-76
2022/07/11 07:05:52;;;;;;;2.97;1.10;;;;;;;45.92;10.51;100461.53;5034965;28;20382;-76
2022/07/11 07:08:17;;;;;;;4.30;1.08;;;;;;;45.55;10.19;100466.19;5035073;28;20029;-77
2022/07/11 07:10:43;;;;;;;5.40;1.02;;;;;;;44.67;10.83;100469.91;5034900;28;20375;-78
2022/07/11 07:13:09;;;;;;;6.95;1.00;;;;;;;44.61;10.74;100481.78;5034465;28;20092;-77
2022/07/11 07:15:37;;;;;;;4.20;1.17;;;;;;;44.57;11.14;100468.91;5034720;28;20566;-75
2022/07/11 07:18:04;;;;;;;6.85;2.00;;;;;;;44.25;11.12;100481.00;5034878;28;20093;-77
2022/07/11 07:20:32;;;;;;;6.88;1.73;;;;;;;44.07;11.76;100478.34;5033395;28;20367;-78
2022/07/11 07:22:59;;;;;;;1.88;0.90;;;;;;;43.95;11.69;100483.34;5049880;28;20487;-76
2022/07/11 07:25:25;;;;;;;4.05;1.70;;;;;;;44.12;11.93;100467.19;5034634;28;20113;-78
2022/07/11 07:27:52;;;;;;;4.78;1.45;;;;;;;44.28;11.80;100468.34;5034489;28;20120;-76
2022/07/11 07:30:19;;;;;;;1.38;0.70;;;;;;;44.38;11.57;100467.03;5033345;28;20041;-77
2022/07/11 07:32:45;;;;;;;2.50;1.00;;;;;;;44.61;11.16;100462.97;5034438;28;20418;-77
2022/07/11 07:35:10;;;;;;;3.17;1.15;;;;;;;44.73;11.17;100445.97;5034570;28;20115;-76
2022/07/11 07:37:38;;;;;;;2.95;1.00;;;;;;;44.95;11.21;100465.91;5033956;28;20418;-76
2022/07/11 07:40:04;;;;;;;5.03;1.35;;;;;;;44.13;11.61;100457.47;5033529;28;20144;-76
2022/07/11 07:42:30;;;;;;;3.85;1.25;;;;;;;44.68;11.85;100456.38;5033993;28;20034;-76
2022/07/11 07:44:57;;;;;;;6.03;1.20;;;;;;;44.23;11.56;100460.69;5032946;28;20045;-76
2022/07/11 07:47:25;;;;;;;12.23;3.10;;;;;;;45.44;10.99;100464.53;5032431;28;20030;-74
2022/07/11 07:49:53;;;;;;;3.17;0.73;;;;;;;47.24;9.15;100466.84;5033773;28;20029;-75
2022/07/11 07:52:19;;;;;;;8.13;1.38;;;;;;;46.73;9.81;100465.56;5032390;28;20048;-76
2022/07/11 07:54:46;;;;;;;4.40;0.93;;;;;;;46.73;9.64;100463.31;5033951;28;20123;-75
2022/07/11 07:57:12;;;;;;;6.72;1.00;;;;;;;46.09;10.61;100472.28;5033059;28;20095;-75
2022/07/11 07:59:38;;;;;;;4.95;0.90;;;;;;;44.39;11.29;100477.56;5049025;28;20026;-74
2022/07/11 08:02:06;;;;;;;3.53;0.80;;;;;;;45.32;11.06;100479.34;5033692;28;20458;-74
2022/07/11 08:04:40;;;;;;;6.50;0.85;;;;;;;48.51;8.73;100463.88;5033076;28;20100;-74
2022/07/11 08:07:06;;;;;;;1.92;0.82;;;;;;;50.05;8.37;100445.72;5049126;28;20445;-75
2022/07/11 08:09:32;;;;;;;1.90;0.70;;;;;;;52.19;6.96;100437.97;5033224;28;20065;-75
2022/07/11 08:12:00;;;;;;;6.00;1.30;;;;;;;51.46;7.46;100437.28;5033866;28;20044;-75
2022/07/11 08:14:27;;;;;;;3.95;0.90;;;;;;;50.91;7.63;100447.59;5033346;28;20033;-75
2022/07/11 08:16:53;;;;;;;0.90;0.80;;;;;;;51.46;7.06;100435.00;5033455;28;20065;-75
2022/07/11 08:19:18;;;;;;;7.25;0.90;;;;;;;54.71;5.96;100418.19;5032971;28;20116;-75
2022/07/11 08:21:44;;;;;;;8.88;0.60;;;;;;;56.73;4.72;100410.13;5031599;28;20116;-76
2022/07/11 08:24:10;;;;;;;2.10;0.47;;;;;;;56.21;5.15;100406.41;5033565;28;20442;-76
2022/07/11 08:26:37;;;;;;;4.57;0.95;;;;;;;56.55;5.01;100410.00;5032169;28;20541;-76
2022/07/11 08:29:04;;;;;;;3.97;1.02;;;;;;;57.54;4.79;100416.53;5033431;28;20038;-75
2022/07/11 08:31:38;;;;;;;5.15;0.85;;;;;;;54.58;5.72;100417.69;5048491;28;20072;-76
2022/07/11 08:34:05;;;;;;;2.47;1.00;;;;;;;55.35;4.92;100412.75;5033437;28;20451;-75
2022/07/11 08:36:34;;;;;;;8.70;1.80;;;;;;;54.68;5.93;100408.31;5033418;28;20064;-76
2022/07/11 08:39:00;;;;;;;3.30;0.60;;;;;;;54.76;5.73;100405.06;5033129;28;20041;-76
2022/07/11 08:41:25;;;;;;;4.85;1.05;;;;;;;53.30;6.74;100413.44;5033126;28;20040;-74
2022/07/11 08:43:52;;;;;;;4.30;1.00;;;;;;;53.16;6.04;100410.66;5031668;28;20041;-74
2022/07/11 08:46:19;;;;;;;2.28;0.73;;;;;;;53.75;5.73;100398.13;5032950;28;20064;-74
2022/07/11 08:48:47;;;;;;;3.70;0.90;;;;;;;53.12;6.52;100398.56;5031908;28;20046;-75
2022/07/11 08:51:14;;;;;;;1.65;0.50;;;;;;;50.97;6.99;100398.19;5033172;28;20026;-74
2022/07/11 08:53:44;;;;;;;10.43;1.98;;;;;;;51.06;6.99;100398.88;5048385;28;20112;-75
2022/07/11 08:56:14;;;;;;;3.75;0.98;;;;;;;51.77;6.90;100402.75;5032991;28;20115;-75
2022/07/11 08:58:44;;;;;;;8.35;1.10;;;;;;;50.35;7.26;100411.47;5031769;28;20034;-75
2022/07/11 09:01:19;;;;;;;2.20;0.60;;;;;;;49.33;7.87;100420.09;5031918;28;20426;-74
2022/07/11 09:03:53;;;;;;;8.25;0.80;;;;;;;48.09;8.35;100430.44;5033160;28;20048;-75
2022/07/11 09:06:20;;;;;;;3.85;1.10;;;;;;;47.22;9.32;100430.59;5036870;28;20506;-74
2022/07/11 09:08:47;;;;;;;0.93;0.65;;;;;;;46.85;9.42;100428.72;5035428;28;20034;-76
2022/07/11 09:11:14;;;;;;;4.38;1.20;;;;;;;46.78;9.47;100430.91;5036998;28;20076;-75
2022/07/11 09:13:40;;;;;;;4.93;1.65;;;;;;;47.29;9.03;100426.13;5036766;28;20026;-75
2022/07/11 09:16:17;;;;;;;6.32;2.80;;;;;;;48.03;9.17;100428.91;5035206;28;20463;-76
2022/07/11 09:18:42;;;;;;;5.03;0.88;;;;;;;47.03;9.33;100411.56;5018716;28;20136;-76
2022/07/11 09:26:48;;;;;;;3.92;0.88;;;;;;;49.24;8.30;100425.41;5035946;28;20079;-75
2022/07/11 09:29:17;;;;;;;4.93;1.25;;;;;;;48.48;8.83;100402.63;5018601;28;20060;-77
2022/07/11 09:31:46;;;;;;;2.78;1.25;;;;;;;46.83;10.22;100428.72;5036201;28;20030;-76
2022/07/11 09:34:14;;;;;;;4.38;0.70;;;;;;;45.50;10.52;100428.47;5035099;28;20029;-76
2022/07/11 09:37:07;;;;;;;9.75;1.05;;;;;;;44.72;11.08;100432.41;5036398;28;20033;-75
2022/07/11 09:39:33;;;;;;;4.47;0.90;;;;;;;44.24;11.23;100438.19;5034714;28;20094;-75
2022/07/11 09:41:58;;;;;;;4.80;0.85;;;;;;;44.76;10.90;100427.94;5035135;28;20079;-75
2022/07/11 09:44:28;;;;;;;0.73;0.40;;;;;;;44.29;11.14;100436.81;5036046;28;20435;-75
2022/07/11 09:46:56;;;;;;;4.55;1.33;;;;;;;45.04;10.96;100432.25;5036326;28;20048;-75
2022/07/11 09:49:39;;;;;;;6.30;2.15;;;;;;;46.14;10.20;100422.63;5034525;28;20037;-76
2022/07/11 09:52:13;;;;;;;4.68;0.90;;;;;;;46.51;10.40;100411.00;5032289;28;20049;-75
2022/07/11 09:55:05;;;;;;;3.97;0.82;;;;;;;46.54;10.16;100415.59;5035754;28;20067;-75
2022/07/11 09:57:39;;;;;;;3.08;1.55;;;;;;;47.17;9.54;100407.91;5035061;28;20124;-76
2022/07/11 10:00:13;;;;;;;6.00;0.93;;;;;;;47.00;9.62;100397.97;5034807;28;20096;-76
2022/07/11 10:02:39;;;;;;;4.00;0.80;;;;;;;46.54;10.34;100413.34;5035984;28;20582;-75
2022/07/11 10:05:06;;;;;;;13.77;3.67;;;;;;;45.78;10.27;100401.84;5036013;28;20120;-75
2022/07/11 10:07:32;;;;;;;4.68;1.67;;;;;;;46.32;9.86;100407.81;5035733;28;20116;-75
2022/07/11 10:10:00;;;;;;;5.95;1.83;;;;;;;47.09;10.31;100399.53;5036117;28;20057;-76
2022/07/11 10:12:27;;;;;;;7.65;1.33;;;;;;;45.68;10.45;100392.63;5034743;28;20124;-75
2022/07/11 10:15:03;;;;;;;7.78;1.10;;;;;;;45.57;10.69;100403.00;5037374;28;20394;-77
2022/07/11 10:18:14;;;;;;;9.98;1.67;;;;;;;45.66;10.52;100418.94;5035224;28;20049;-76
2022/07/11 10:20:55;;;;;;;4.97;0.88;;;;;;;46.29;9.60;100421.31;5034105;28;20391;-77
2022/07/11 10:23:28;;;;;;;1.02;0.82;;;;;;;46.19;10.35;100415.16;5035474;28;20029;-75
2022/07/11 10:26:25;;;;;;;1.45;0.95;;;;;;;45.51;10.54;100411.94;5035329;28;20533;-77
2022/07/11 10:28:55;;;;;;;3.97;0.77;;;;;;;46.01;10.49;100417.19;5035472;28;20108;-76
2022/07/11 10:31:28;;;;;;;3.72;0.82;;;;;;;45.49;10.55;100408.91;5035179;28;20033;-75
2022/07/11 10:34:04;;;;;;;4.45;0.90;;;;;;;46.25;10.31;100414.50;5035361;28;20159;-76
2022/07/11 10:36:33;;;;;;;11.23;0.85;;;;;;;46.43;10.51;100407.91;5034918;28;20033;-76
2022/07/11 10:39:26;;;;;;;6.18;1.40;;;;;;;46.30;9.84;100404.75;5033187;28;20445;-77
2022/07/11 10:41:54;;;;;;;2.83;0.40;;;;;;;45.82;10.45;100407.91;5035292;28;20078;-76
2022/07/11 10:44:21;;;;;;;1.40;0.85;;;;;;;46.30;10.27;100404.75;5035002;28;20044;-76
2022/07/11 10:46:48;;;;;;;3.95;1.80;;;;;;;46.88;10.05;100409.88;5034946;28;20489;-75
2022/07/11 10:49:15;;;;;;;5.57;0.90;;;;;;;46.70;10.47;100406.72;5031692;28;20159;-78
2022/07/11 10:51:40;;;;;;;12.77;1.40;;;;;;;47.07;9.74;100402.53;5035208;28;20044;-74
2022/07/11 10:54:46;;;;;;;5.68;1.00;;;;;;;47.52;9.24;100400.63;5035013;28;20029;-76
2022/07/11 10:57:37;;;;;;;4.78;0.63;;;;;;;47.52;9.73;100400.63;5035245;28;20152;-75
2022/07/11 11:00:23;;;;;;;3.97;0.73;;;;;;;46.57;9.89;100390.00;5034939;28;20031;-75
2022/07/11 11:03:08;;;;;;;6.25;1.10;;;;;;;45.79;10.39;100385.25;5034831;28;20033;-75
2022/07/11 11:05:54;;;;;;;4.90;0.88;;;;;;;46.18;10.60;100376.75;5033181;28;20453;-75
2022/07/11 11:08:36;;;;;;;23.95;2.65;;;;;;;45.33;10.54;100387.56;5033875;28;20037;-76
2022/07/11 11:11:02;;;;;;;2.38;0.60;;;;;;;44.93;10.87;100388.41;5034749;28;20052;-76
2022/07/11 11:13:30;;;;;;;1.50;0.30;;;;;;;45.40;10.37;100386.94;5035063;28;20060;-75
2022/07/11 11:15:58;;;;;;;0.95;0.50;;;;;;;45.34;10.09;100398.13;5033277;28;20051;-76
2022/07/11 11:18:23;;;;;;;1.02;0.52;;;;;;;45.17;10.55;100385.06;5033797;28;20033;-76
2022/07/11 11:21:09;;;;;;;0.85;0.60;;;;;;;45.60;10.90;100389.50;5034523;28;20391;-76
2022/07/11 11:23:37;;;;;;;5.03;0.80;;;;;;;45.58;10.29;100398.50;5034084;28;20442;-77
2022/07/11 11:26:14;;;;;;;4.28;0.50;;;;;;;44.66;11.17;100392.44;5034370;28;20415;-75
2022/07/11 11:28:59;;;;;;;8.93;0.85;;;;;;;44.28;11.59;100417.25;5033663;28;20037;-76
2022/07/11 11:31:30;;;;;;;1.35;0.50;;;;;;;43.81;11.84;100409.44;5034601;28;20092;-76
2022/07/11 11:33:57;;;;;;;7.80;0.97;;;;;;;44.84;10.92;100404.03;5033193;28;20040;-77
2022/07/11 11:36:25;;;;;;;24.30;1.63;;;;;;;44.29;10.89;100409.00;5049365;28;20112;-76
2022/07/11 11:38:52;;;;;;;11.00;0.98;;;;;;;44.10;11.65;100416.84;5049283;28;20064;-77